Time;durP1;ratioP1;P1;durP2;ratioP2;P2;SDS_P1;SDS_P2;PMS_P1;PMS_P2;Temp;Humidity;BMP_temperature;BMP_pressure;BME280_temperature;BME280_humidity;BME280_pressure;Samples;Min_cycle;Max_cycle;Signal;HPM_P1;HPM_P2
2021/11/04 01:13:35;;;;;;;15.13;11.27;;;;;;;;;;4841838;29;20199;-89
2021/11/04 01:26:06;;;;;;;15.53;11.10;;;;;;;;;;4906138;29;20193;-89
2021/11/04 01:54:56;;;;;;;15.30;11.10;;;;;;;;;;4932538;29;20591;-88
2021/11/04 02:37:29;;;;;;;15.40;11.03;;;;;;;;;;4898635;29;20186;-90
2021/11/04 02:42:35;;;;;;;;;;;;;;;;;;;;;
2021/11/04 03:38:32;;;;;;;;;;;;;;;;;;;;;
2021/11/04 03:42:57;;;;;;;7.07;5.43;;;;;;;;;;4942465;29;20203;-88
2021/11/04 03:51:02;;;;;;;5.57;4.87;;;;;;;;;;4905411;29;20209;-89
2021/11/04 03:59:27;;;;;;;7.03;5.30;;;;;;;;;;4921481;23;20235;-91
2021/11/04 10:02:23;;;;;;;2.20;2.00;;;;;;;;;;4987522;23;20255;-72
2021/11/04 10:05:27;;;;;;;2.50;2.30;;;;;;;;;;4917321;29;20220;-72
2021/11/04 10:08:34;;;;;;;4.10;3.70;;;;;;;;;;4932061;29;20196;-71
2021/11/04 10:11:44;;;;;;;2.37;2.17;;;;;;;;;;4905757;29;20221;-72
2021/11/04 10:14:48;;;;;;;3.00;2.70;;;;;;;;;;4898517;29;20182;-72
2021/11/04 10:18:09;;;;;;;2.20;2.00;;;;;;;;;;4897149;29;20197;-72
2021/11/04 10:21:13;;;;;;;2.10;1.90;;;;;;;;;;4928693;29;20691;-72
2021/11/04 10:24:23;;;;;;;3.17;2.97;;;;;;;;;;4909324;29;20225;-72
2021/11/04 10:27:35;;;;;;;4.20;3.47;;;;;;;;;;4921188;29;20192;-72
2021/11/04 10:30:43;;;;;;;2.67;2.30;;;;;;;;;;4920253;29;20224;-72
2021/11/04 10:33:49;;;;;;;3.97;1.90;;;;;;;;;;4890500;29;20173;-72
2021/11/04 10:37:09;;;;;;;1.80;1.47;;;;;;;;;;4903317;29;20193;-71
2021/11/04 10:40:18;;;;;;;2.03;1.83;;;;;;;;;;4920734;29;20181;-72
2021/11/04 10:43:22;;;;;;;2.40;1.47;;;;;;;;;;4920554;29;20193;-72
2021/11/04 10:46:26;;;;;;;1.70;1.60;;;;;;;;;;4920806;29;20177;-72
2021/11/04 10:49:45;;;;;;;3.10;1.30;;;;;;;;;;4907253;29;20200;-72
2021/11/04 10:52:49;;;;;;;3.03;1.50;;;;;;;;;;4902458;29;20193;-72
2021/11/04 10:56:14;;;;;;;2.40;1.70;;;;;;;;;;4909306;29;20212;-74
2021/11/04 10:59:20;;;;;;;1.80;1.30;;;;;;;;;;4903523;29;20580;-74
2021/11/04 11:02:24;;;;;;;1.20;1.10;;;;;;;;;;4908445;29;20228;-75
2021/11/04 11:05:33;;;;;;;1.40;1.30;;;;;;;;;;4919781;29;20221;-74
2021/11/04 11:08:37;;;;;;;1.97;1.33;;;;;;;;;;4920040;29;20644;-74
2021/11/04 11:11:45;;;;;;;1.73;1.40;;;;;;;;;;4907826;29;20221;-74
2021/11/04 11:14:50;;;;;;;1.77;1.50;;;;;;;;;;4920041;29;20181;-75
2021/11/04 11:17:55;;;;;;;1.70;1.30;;;;;;;;;;4919610;29;20200;-74
2021/11/04 11:21:01;;;;;;;1.70;1.37;;;;;;;;;;4907979;29;20600;-74
2021/11/04 11:24:08;;;;;;;1.53;1.33;;;;;;;;;;4908196;29;20676;-74
2021/11/04 11:27:14;;;;;;;2.40;2.13;;;;;;;;;;4919577;29;20196;-74
2021/11/04 11:30:18;;;;;;;3.63;3.13;;;;;;;;;;4918494;29;20181;-74
2021/11/04 11:33:23;;;;;;;4.20;3.50;;;;;;;;;;4903089;29;20185;-74
2021/11/04 11:36:27;;;;;;;3.27;2.97;;;;;;;;;;4918937;29;20193;-74
2021/11/04 11:39:49;;;;;;;2.50;2.30;;;;;;;;;;4919825;29;20181;-74
2021/11/04 11:43:14;;;;;;;2.17;2.00;;;;;;;;;;4908234;29;20198;-74
2021/11/04 11:46:19;;;;;;;1.57;1.47;;;;;;;;;;4907356;29;20549;-74
2021/11/04 11:49:26;;;;;;;1.90;1.80;;;;;;;;;;4918806;29;20189;-74
2021/11/04 11:52:54;;;;;;;2.17;1.97;;;;;;;;;;4918729;29;20596;-74
2021/11/04 11:56:00;;;;;;;1.50;1.33;;;;;;;;;;4918695;29;20198;-75
2021/11/04 11:59:21;;;;;;;2.43;1.23;;;;;;;;;;4918964;29;20552;-74
2021/11/04 12:02:44;;;;;;;2.43;2.00;;;;;;;;;;4918492;29;20232;-74
2021/11/04 12:05:48;;;;;;;1.30;1.20;;;;;;;;;;4907469;29;20216;-74
2021/11/04 12:08:53;;;;;;;1.40;1.30;;;;;;;;;;4918918;29;20181;-74
2021/11/04 12:11:57;;;;;;;1.80;1.70;;;;;;;;;;4912512;29;20588;-74
2021/11/04 12:15:04;;;;;;;1.60;1.50;;;;;;;;;;4901341;29;20547;-74
2021/11/04 12:18:13;;;;;;;1.80;1.60;;;;;;;;;;4917840;29;20205;-74
2021/11/04 12:21:20;;;;;;;1.90;1.80;;;;;;;;;;4906946;29;20217;-74
2021/11/04 12:24:24;;;;;;;2.17;1.80;;;;;;;;;;4896381;29;20216;-74
2021/11/04 12:27:32;;;;;;;3.17;2.47;;;;;;;;;;4918832;29;20189;-74
2021/11/04 12:30:38;;;;;;;101.50;36.00;;;;;;;;;;4918312;29;20217;-73
2021/11/04 12:33:43;;;;;;;4.80;2.90;;;;;;;;;;4900106;29;20656;-73
2021/11/04 12:36:49;;;;;;;2.10;1.90;;;;;;;;;;4915984;29;20530;-74
2021/11/04 12:39:53;;;;;;;2.43;2.23;;;;;;;;;;4917731;29;20189;-73
2021/11/04 12:43:09;;;;;;;2.30;2.10;;;;;;;;;;4905958;29;20204;-73
2021/11/04 12:46:23;;;;;;;2.53;2.00;;;;;;;;;;4918344;29;20213;-72
2021/11/04 12:49:32;;;;;;;1.50;1.40;;;;;;;;;;4917856;29;20197;-73
2021/11/04 12:52:36;;;;;;;1.50;1.40;;;;;;;;;;4918272;29;20704;-73
2021/11/04 12:55:40;;;;;;;1.57;1.47;;;;;;;;;;4917678;29;20204;-73
2021/11/04 12:58:50;;;;;;;1.50;1.40;;;;;;;;;;4887605;29;20207;-72
2021/11/04 13:02:06;;;;;;;2.50;1.20;;;;;;;;;;4906948;29;20221;-73
2021/11/04 13:05:12;;;;;;;1.03;0.90;;;;;;;;;;4915427;29;20229;-73
2021/11/04 13:08:19;;;;;;;1.23;1.13;;;;;;;;;;4906551;29;20185;-74
2021/11/04 13:11:23;;;;;;;1.17;0.90;;;;;;;;;;4901162;29;20225;-74
2021/11/04 13:14:28;;;;;;;5.60;3.13;;;;;;;;;;4918044;29;20189;-73
2021/11/04 13:17:39;;;;;;;1.93;1.73;;;;;;;;;;4906161;29;20196;-73
2021/11/04 13:20:46;;;;;;;1.80;1.70;;;;;;;;;;4910674;29;20225;-73
2021/11/04 13:23:50;;;;;;;1.10;1.00;;;;;;;;;;4917519;29;20545;-73
2021/11/04 13:26:54;;;;;;;1.13;1.00;;;;;;;;;;4917258;29;20197;-71
2021/11/04 13:29:59;;;;;;;1.70;1.27;;;;;;;;;;4916816;29;20205;-71
2021/11/04 13:33:04;;;;;;;1.37;1.10;;;;;;;;;;4917961;29;20648;-71
2021/11/04 13:36:11;;;;;;;0.70;0.70;;;;;;;;;;4917632;29;20173;-71
2021/11/04 13:39:15;;;;;;;0.80;0.80;;;;;;;;;;4905233;29;20189;-70
2021/11/04 13:42:31;;;;;;;0.90;0.77;;;;;;;;;;4905830;29;20216;-70
2021/11/04 13:45:35;;;;;;;1.00;0.90;;;;;;;;;;4917688;29;20217;-71
2021/11/04 13:48:52;;;;;;;1.30;0.70;;;;;;;;;;4916993;29;20196;-71
2021/11/04 13:51:58;;;;;;;0.70;0.63;;;;;;;;;;4886825;29;20229;-71
2021/11/04 13:55:05;;;;;;;0.60;0.60;;;;;;;;;;4898129;29;20181;-71
2021/11/04 13:58:10;;;;;;;0.90;0.90;;;;;;;;;;4914713;29;20196;-70
2021/11/04 14:01:13;;;;;;;0.80;0.80;;;;;;;;;;4916711;29;20224;-70
2021/11/04 14:04:17;;;;;;;1.13;1.03;;;;;;;;;;4904936;29;20212;-70
2021/11/04 14:07:37;;;;;;;1.33;1.10;;;;;;;;;;4916242;29;20193;-71
2021/11/04 14:10:42;;;;;;;2.33;1.20;;;;;;;;;;4916549;29;20220;-71
2021/11/04 14:13:53;;;;;;;1.40;0.90;;;;;;;;;;4905333;29;20188;-70
2021/11/04 14:17:04;;;;;;;1.43;1.13;;;;;;;;;;4916328;29;20192;-71
2021/11/04 14:20:08;;;;;;;1.70;1.00;;;;;;;;;;4916716;29;20196;-70
2021/11/04 14:23:15;;;;;;;1.33;1.23;;;;;;;;;;4905237;29;20196;-70
2021/11/04 14:26:24;;;;;;;4.53;3.40;;;;;;;;;;4893812;29;20221;-70
2021/11/04 14:29:28;;;;;;;1.87;1.70;;;;;;;;;;4905248;29;20196;-70
2021/11/04 14:32:32;;;;;;;1.80;1.70;;;;;;;;;;4916355;29;20557;-70
2021/11/04 14:35:36;;;;;;;3.77;1.87;;;;;;;;;;4910906;29;20191;-72
2021/11/04 14:38:40;;;;;;;2.63;1.60;;;;;;;;;;4917443;29;20205;-72
2021/11/04 14:41:45;;;;;;;1.50;1.40;;;;;;;;;;4916934;29;20700;-74
2021/11/04 14:44:49;;;;;;;1.40;1.30;;;;;;;;;;4915572;29;20188;-72
2021/11/04 14:47:59;;;;;;;1.73;1.17;;;;;;;;;;4916666;29;20180;-72
2021/11/04 14:51:05;;;;;;;1.30;1.20;;;;;;;;;;4917142;29;20668;-72
2021/11/04 14:54:09;;;;;;;2.50;1.10;;;;;;;;;;4916352;29;20549;-72
2021/11/04 14:57:14;;;;;;;1.33;1.23;;;;;;;;;;4916878;29;20177;-72
2021/11/04 15:00:18;;;;;;;1.40;1.30;;;;;;;;;;4916199;29;20197;-72
2021/11/04 15:03:22;;;;;;;1.50;1.40;;;;;;;;;;4905128;29;20217;-73
2021/11/04 15:06:27;;;;;;;1.70;1.60;;;;;;;;;;4919666;29;20208;-73
2021/11/04 15:09:31;;;;;;;2.37;1.77;;;;;;;;;;4901068;29;20186;-72
2021/11/04 15:12:35;;;;;;;2.40;2.20;;;;;;;;;;4909903;29;20224;-72
2021/11/04 15:15:40;;;;;;;2.00;1.80;;;;;;;;;;4920018;29;20184;-71
2021/11/04 15:18:46;;;;;;;1.83;1.73;;;;;;;;;;4919509;29;20189;-70
2021/11/04 15:21:50;;;;;;;4.20;1.77;;;;;;;;;;4907760;29;20560;-74
2021/11/04 15:24:54;;;;;;;2.00;1.77;;;;;;;;;;4919824;29;20632;-71
2021/11/04 15:27:59;;;;;;;3.57;2.17;;;;;;;;;;4919752;29;20636;-70
2021/11/04 15:31:03;;;;;;;2.23;2.03;;;;;;;;;;4908215;29;20692;-71
2021/11/04 15:34:07;;;;;;;7.80;6.37;;;;;;;;;;4907529;29;20197;-71
2021/11/04 15:37:11;;;;;;;3.23;2.93;;;;;;;;;;4919450;29;20192;-71
2021/11/04 15:40:15;;;;;;;3.13;2.30;;;;;;;;;;4919369;29;20659;-71
2021/11/04 15:43:19;;;;;;;3.27;2.70;;;;;;;;;;4919110;29;20201;-71
2021/11/04 15:46:24;;;;;;;3.97;2.50;;;;;;;;;;4918862;29;20676;-71
2021/11/04 15:49:28;;;;;;;3.53;2.80;;;;;;;;;;4919122;29;20197;-71
2021/11/04 15:52:32;;;;;;;3.43;2.57;;;;;;;;;;4907370;29;20224;-71
2021/11/04 15:55:36;;;;;;;3.30;2.90;;;;;;;;;;4918994;29;20197;-71
2021/11/04 15:58:41;;;;;;;3.67;3.07;;;;;;;;;;4919358;29;20545;-71
2021/11/04 16:01:45;;;;;;;3.73;3.23;;;;;;;;;;4902634;29;20225;-71
2021/11/04 16:04:49;;;;;;;3.47;3.00;;;;;;;;;;4915790;29;20205;-70
2021/11/04 16:07:53;;;;;;;3.63;3.20;;;;;;;;;;4907387;29;20657;-70
2021/11/04 16:10:57;;;;;;;3.33;2.90;;;;;;;;;;4904013;29;20791;-71
2021/11/04 16:14:02;;;;;;;6.27;5.43;;;;;;;;;;4914835;29;20196;-71
2021/11/04 16:17:07;;;;;;;13.73;12.33;;;;;;;;;;4902072;29;20197;-71
2021/11/04 16:20:11;;;;;;;4.47;4.00;;;;;;;;;;4915367;29;20184;-71
2021/11/04 16:23:15;;;;;;;4.10;3.70;;;;;;;;;;4910054;29;20200;-71
2021/11/04 16:26:19;;;;;;;4.23;3.63;;;;;;;;;;4914811;29;20228;-71
2021/11/04 16:29:23;;;;;;;6.97;3.70;;;;;;;;;;4915217;29;20202;-71
2021/11/04 16:32:28;;;;;;;4.93;3.80;;;;;;;;;;4917603;29;20620;-71
2021/11/04 16:35:32;;;;;;;7.33;4.80;;;;;;;;;;4908303;29;20185;-71
2021/11/04 16:38:36;;;;;;;4.57;4.17;;;;;;;;;;4932258;29;20909;-71
2021/11/04 16:41:40;;;;;;;4.53;3.80;;;;;;;;;;4926814;29;20232;-71
2021/11/04 16:44:44;;;;;;;5.53;3.80;;;;;;;;;;4903090;29;20200;-70
2021/11/04 16:47:50;;;;;;;4.20;3.67;;;;;;;;;;4913810;29;20193;-71
2021/11/04 16:50:54;;;;;;;5.33;4.40;;;;;;;;;;4914395;29;20224;-71
2021/11/04 16:53:58;;;;;;;4.73;4.23;;;;;;;;;;4914203;29;20573;-71
2021/11/04 16:57:03;;;;;;;4.80;4.00;;;;;;;;;;4911426;29;20185;-71
2021/11/04 17:00:09;;;;;;;8.67;4.80;;;;;;;;;;4901669;29;20189;-71
2021/11/04 17:03:13;;;;;;;5.20;4.67;;;;;;;;;;4899422;29;20212;-71
2021/11/04 17:06:20;;;;;;;8.57;7.30;;;;;;;;;;4912421;29;20217;-71
2021/11/04 17:09:25;;;;;;;7.73;6.93;;;;;;;;;;4898595;29;20189;-71
2021/11/04 17:12:43;;;;;;;8.60;6.00;;;;;;;;;;4914412;29;20219;-71
2021/11/04 17:15:52;;;;;;;10.17;5.53;;;;;;;;;;4915813;29;20197;-71
2021/11/04 17:18:56;;;;;;;6.43;5.40;;;;;;;;;;4916209;29;20200;-71
2021/11/04 17:22:00;;;;;;;6.03;5.30;;;;;;;;;;4960157;23;20609;-90
2021/11/04 17:25:09;;;;;;;7.03;5.60;;;;;;;;;;4949856;28;20191;-89
2021/11/04 17:28:14;;;;;;;6.70;6.00;;;;;;;;;;4940887;28;20195;-88
2021/11/04 17:31:18;;;;;;;8.23;6.20;;;;;;;;;;4942652;28;20634;-88
2021/11/04 17:34:22;;;;;;;8.00;6.30;;;;;;;;;;4933862;29;20566;-88
2021/11/04 17:37:26;;;;;;;8.73;5.73;;;;;;;;;;4928354;28;20531;-88
2021/11/04 17:40:31;;;;;;;6.93;5.67;;;;;;;;;;4933287;29;20646;-88
2021/11/04 17:43:37;;;;;;;7.20;6.07;;;;;;;;;;4941740;28;20195;-88
2021/11/04 17:46:42;;;;;;;10.60;6.93;;;;;;;;;;4941656;28;20214;-86
2021/11/04 17:49:47;;;;;;;9.13;7.00;;;;;;;;;;4941635;28;20179;-87
2021/11/04 17:52:51;;;;;;;7.10;6.33;;;;;;;;;;4933565;28;20709;-89
2021/11/04 17:55:55;;;;;;;8.30;6.43;;;;;;;;;;4940252;29;20183;-86
2021/11/04 17:59:00;;;;;;;7.57;6.67;;;;;;;;;;4951003;28;20531;-86
2021/11/04 18:02:04;;;;;;;8.77;6.97;;;;;;;;;;4945866;28;20223;-86
2021/11/04 18:05:09;;;;;;;6.27;5.63;;;;;;;;;;4922597;29;20195;-86
2021/11/04 18:08:13;;;;;;;8.20;5.97;;;;;;;;;;4939470;28;20188;-86
2021/11/04 18:11:17;;;;;;;9.57;5.77;;;;;;;;;;4922526;29;20203;-87
2021/11/04 18:14:23;;;;;;;7.43;6.00;;;;;;;;;;4923054;29;20191;-87
2021/11/04 18:17:27;;;;;;;10.67;7.03;;;;;;;;;;4922186;29;20180;-86
2021/11/04 18:20:32;;;;;;;9.33;8.17;;;;;;;;;;4924129;28;20638;-86
2021/11/04 18:23:37;;;;;;;8.63;7.53;;;;;;;;;;4932743;29;20199;-85
2021/11/04 18:26:41;;;;;;;8.20;7.03;;;;;;;;;;4930827;29;20219;-86
2021/11/04 18:29:45;;;;;;;9.97;7.07;;;;;;;;;;4922326;28;20195;-85
2021/11/04 18:32:49;;;;;;;9.37;7.27;;;;;;;;;;4932536;28;20216;-85
2021/11/04 18:35:54;;;;;;;8.60;6.40;;;;;;;;;;4960653;28;20195;-84
2021/11/04 18:38:58;;;;;;;8.03;6.70;;;;;;;;;;4924115;28;20191;-84
2021/11/04 18:42:02;;;;;;;8.97;6.13;;;;;;;;;;4943417;28;20218;-84
2021/11/04 18:45:07;;;;;;;8.97;6.70;;;;;;;;;;4936441;29;20195;-84
2021/11/04 18:48:11;;;;;;;7.57;6.27;;;;;;;;;;4943578;28;20198;-85
2021/11/04 18:51:15;;;;;;;8.00;6.63;;;;;;;;;;4949700;28;20199;-85
2021/11/04 18:54:20;;;;;;;9.93;6.70;;;;;;;;;;4938107;29;20180;-85
2021/11/04 18:57:25;;;;;;;7.63;6.20;;;;;;;;;;4940003;29;20643;-84
2021/11/04 19:00:29;;;;;;;10.00;7.07;;;;;;;;;;4946492;28;20235;-84
2021/11/04 19:03:34;;;;;;;9.37;7.63;;;;;;;;;;4939020;28;20527;-84
2021/11/04 19:06:38;;;;;;;10.90;8.03;;;;;;;;;;4937854;29;20219;-84
2021/11/04 19:09:43;;;;;;;10.47;7.67;;;;;;;;;;4926481;29;20184;-84
2021/11/04 19:12:47;;;;;;;10.63;8.43;;;;;;;;;;4934420;28;20219;-85
2021/11/04 19:15:52;;;;;;;11.77;8.37;;;;;;;;;;4926316;29;20215;-84
2021/11/04 19:18:56;;;;;;;13.17;8.63;;;;;;;;;;4937255;28;20194;-86
2021/11/04 19:22:00;;;;;;;11.47;8.40;;;;;;;;;;4932153;28;20230;-85
2021/11/04 19:25:06;;;;;;;10.40;8.33;;;;;;;;;;4944689;28;20681;-84
2021/11/04 19:28:11;;;;;;;12.13;8.00;;;;;;;;;;4942648;28;20215;-85
2021/11/04 19:31:15;;;;;;;11.27;7.90;;;;;;;;;;4958029;29;20195;-85
2021/11/04 19:34:21;;;;;;;13.70;8.43;;;;;;;;;;4936486;29;20183;-85
2021/11/04 19:37:25;;;;;;;12.17;8.63;;;;;;;;;;4936580;29;20184;-85
2021/11/04 19:40:29;;;;;;;11.80;8.87;;;;;;;;;;4936763;29;20191;-84
2021/11/04 19:43:33;;;;;;;10.20;7.87;;;;;;;;;;4936215;29;20531;-85
2021/11/04 19:46:37;;;;;;;9.83;7.40;;;;;;;;;;4947928;29;20214;-84
2021/11/04 19:49:44;;;;;;;10.63;8.13;;;;;;;;;;4937254;29;20191;-86
2021/11/04 19:52:51;;;;;;;10.63;8.20;;;;;;;;;;4936121;29;20219;-86
2021/11/04 19:55:54;;;;;;;10.83;7.80;;;;;;;;;;4966987;28;20203;-86
2021/11/04 19:58:59;;;;;;;11.53;8.33;;;;;;;;;;4948194;29;20206;-87
2021/11/04 20:02:03;;;;;;;10.80;7.80;;;;;;;;;;4957658;28;20223;-85
2021/11/04 20:05:09;;;;;;;9.70;7.50;;;;;;;;;;4926136;29;20188;-85
2021/11/04 20:08:14;;;;;;;8.90;6.97;;;;;;;;;;4927448;28;20215;-85
2021/11/04 20:11:20;;;;;;;8.07;6.63;;;;;;;;;;4954858;28;20203;-85
2021/11/04 20:14:24;;;;;;;8.97;6.43;;;;;;;;;;4955295;28;20202;-85
2021/11/04 20:17:29;;;;;;;8.27;6.50;;;;;;;;;;4955983;28;20183;-85
2021/11/04 20:20:33;;;;;;;7.13;6.00;;;;;;;;;;4927356;28;20196;-85
2021/11/04 20:23:37;;;;;;;9.53;6.73;;;;;;;;;;4936322;29;20179;-85
2021/11/04 20:26:41;;;;;;;7.33;5.97;;;;;;;;;;4937448;28;20575;-85
2021/11/04 20:29:45;;;;;;;6.60;5.50;;;;;;;;;;4954172;28;20186;-86
2021/11/04 20:32:49;;;;;;;6.57;5.77;;;;;;;;;;4936080;29;20618;-85
2021/11/04 20:35:54;;;;;;;7.37;6.23;;;;;;;;;;4937758;28;20211;-87
2021/11/04 20:38:58;;;;;;;6.87;5.70;;;;;;;;;;4943790;28;20198;-84
2021/11/04 20:42:03;;;;;;;7.17;6.13;;;;;;;;;;4954654;28;20626;-86
2021/11/04 20:45:10;;;;;;;7.60;5.83;;;;;;;;;;4942983;28;20643;-87
2021/11/04 20:48:14;;;;;;;8.33;6.10;;;;;;;;;;4945739;28;20215;-86
2021/11/04 20:51:18;;;;;;;8.50;6.17;;;;;;;;;;4940411;28;20187;-87
2021/11/04 20:54:22;;;;;;;8.80;6.63;;;;;;;;;;4934948;28;20183;-86
2021/11/04 20:57:28;;;;;;;8.47;6.60;;;;;;;;;;4935953;29;20188;-86
2021/11/04 21:00:32;;;;;;;9.93;6.27;;;;;;;;;;4924012;28;20192;-86
2021/11/04 21:03:36;;;;;;;8.17;6.13;;;;;;;;;;4933744;29;20183;-86
2021/11/04 21:06:43;;;;;;;7.37;6.27;;;;;;;;;;4927405;28;20203;-84
2021/11/04 21:09:47;;;;;;;8.93;7.77;;;;;;;;;;4923655;28;20184;-86
2021/11/04 21:12:52;;;;;;;7.50;6.27;;;;;;;;;;4939068;28;20218;-86
2021/11/04 21:15:57;;;;;;;7.83;6.63;;;;;;;;;;4926389;28;20199;-87
2021/11/04 21:19:03;;;;;;;10.17;6.77;;;;;;;;;;4945145;28;20191;-87
2021/11/04 21:22:09;;;;;;;8.57;6.27;;;;;;;;;;4940270;28;20578;-87
2021/11/04 21:25:13;;;;;;;8.23;6.23;;;;;;;;;;4923368;29;20570;-87
2021/11/04 21:28:17;;;;;;;8.47;6.93;;;;;;;;;;4931122;28;20215;-86
2021/11/04 21:31:23;;;;;;;9.77;7.30;;;;;;;;;;4941586;28;20186;-85
2021/11/04 21:34:27;;;;;;;10.00;7.27;;;;;;;;;;4952488;28;20191;-85
2021/11/04 21:37:32;;;;;;;10.40;7.10;;;;;;;;;;4941516;28;20203;-85
2021/11/04 21:40:36;;;;;;;11.37;7.13;;;;;;;;;;4952715;28;20183;-85
2021/11/04 21:43:40;;;;;;;10.53;7.10;;;;;;;;;;4941720;28;20207;-85
2021/11/04 21:46:45;;;;;;;8.87;6.90;;;;;;;;;;4938839;28;20542;-85
2021/11/04 21:49:50;;;;;;;9.63;7.10;;;;;;;;;;4949720;28;20195;-85
2021/11/04 21:52:55;;;;;;;11.43;7.47;;;;;;;;;;4941249;28;20214;-85
2021/11/04 21:56:02;;;;;;;9.43;6.60;;;;;;;;;;4952357;28;20577;-85
2021/11/04 21:59:06;;;;;;;8.83;6.80;;;;;;;;;;4941233;28;20534;-85
2021/11/04 22:02:10;;;;;;;10.60;7.17;;;;;;;;;;4940823;28;20633;-85
2021/11/04 22:05:14;;;;;;;9.07;6.83;;;;;;;;;;4962638;28;20199;-85
2021/11/04 22:08:20;;;;;;;8.17;6.80;;;;;;;;;;4952118;28;20657;-85
2021/11/04 22:11:24;;;;;;;9.20;6.83;;;;;;;;;;4951940;28;20543;-85
2021/11/04 22:14:28;;;;;;;10.77;7.63;;;;;;;;;;4940616;28;20895;-85
2021/11/04 22:17:33;;;;;;;9.87;6.67;;;;;;;;;;4930622;28;20578;-84
2021/11/04 22:20:38;;;;;;;8.20;6.43;;;;;;;;;;4941048;28;20546;-85
2021/11/04 22:23:42;;;;;;;9.93;7.60;;;;;;;;;;4951277;28;20551;-84
2021/11/04 22:26:49;;;;;;;11.93;7.30;;;;;;;;;;4939322;28;20602;-84
2021/11/04 22:29:55;;;;;;;9.43;7.33;;;;;;;;;;4950637;28;20591;-84
2021/11/04 22:33:02;;;;;;;9.47;7.23;;;;;;;;;;4939087;28;21196;-84
2021/11/04 22:36:06;;;;;;;9.73;7.50;;;;;;;;;;4939847;28;21101;-84
2021/11/04 22:39:11;;;;;;;12.07;8.13;;;;;;;;;;4940093;28;20899;-84
2021/11/04 22:42:15;;;;;;;14.27;8.37;;;;;;;;;;4941096;28;20622;-84
2021/11/04 22:45:19;;;;;;;9.97;7.57;;;;;;;;;;4940895;28;20542;-84
2021/11/04 22:48:26;;;;;;;10.60;8.00;;;;;;;;;;4951507;28;20610;-84
2021/11/04 22:51:30;;;;;;;11.47;8.20;;;;;;;;;;4940821;28;21191;-84
2021/11/04 22:54:34;;;;;;;11.00;7.77;;;;;;;;;;4962477;28;21089;-85
2021/11/04 22:57:38;;;;;;;13.77;7.83;;;;;;;;;;4940519;28;20538;-85
2021/11/04 23:00:52;;;;;;;11.53;7.97;;;;;;;;;;4962804;28;20543;-85
2021/11/04 23:03:56;;;;;;;11.93;8.50;;;;;;;;;;4940695;28;20546;-85
2021/11/04 23:07:01;;;;;;;9.87;7.57;;;;;;;;;;4940285;28;20605;-85
2021/11/04 23:10:05;;;;;;;9.33;7.40;;;;;;;;;;4940300;28;20590;-85
2021/11/04 23:13:10;;;;;;;10.90;8.33;;;;;;;;;;4940297;28;20621;-85
2021/11/04 23:16:14;;;;;;;11.60;8.50;;;;;;;;;;4940433;28;20883;-85
2021/11/04 23:19:19;;;;;;;10.83;8.30;;;;;;;;;;4940461;28;20563;-85
2021/11/04 23:22:23;;;;;;;10.80;7.10;;;;;;;;;;4967937;23;20686;-86
2021/11/04 23:25:27;;;;;;;11.83;7.97;;;;;;;;;;4935251;28;20547;-86
2021/11/04 23:28:32;;;;;;;10.20;7.60;;;;;;;;;;4938147;29;20654;-86
2021/11/04 23:31:37;;;;;;;9.67;7.80;;;;;;;;;;4949108;28;20610;-86
2021/11/04 23:34:42;;;;;;;12.57;9.10;;;;;;;;;;4927053;29;21141;-86
2021/11/04 23:37:47;;;;;;;10.97;8.30;;;;;;;;;;4949498;29;20536;-86
2021/11/04 23:40:51;;;;;;;10.33;8.10;;;;;;;;;;4938468;29;20556;-86
2021/11/04 23:43:55;;;;;;;11.37;8.13;;;;;;;;;;4949066;29;20535;-86
2021/11/04 23:46:59;;;;;;;10.37;7.77;;;;;;;;;;4937933;29;20543;-86
2021/11/04 23:50:05;;;;;;;10.23;7.57;;;;;;;;;;4949552;29;20536;-86
2021/11/04 23:53:14;;;;;;;11.07;8.27;;;;;;;;;;4938240;29;20626;-86
2021/11/04 23:56:18;;;;;;;9.33;7.50;;;;;;;;;;4938565;29;20552;-86
2021/11/04 23:59:22;;;;;;;10.27;7.67;;;;;;;;;;4948650;29;20543;-86
